This is the latest recevied weather packets stored in our database for station/object KP4OZ. If no packets are shown the sender has not sent any weather packets the latest 10 day(s).
| Time | Temp. | Humidity | Pressure | Rain* | Wind** | Luminosity | Snow |
|---|---|---|---|---|---|---|---|
| 1777993015 | 32.78° C | 56% | 1017.4 hPa | 0 mm | - | - | - |
| 1777992714 | 32.78° C | 55% | 1017.6 hPa | 0 mm | - | - | - |
| 1777992411 | 32.22° C | 56% | 1017.6 hPa | 0 mm | - | - | - |
| 1777992109 | 32.78° C | 56% | 1017.6 hPa | 0 mm | - | - | - |
| 1777991806 | 31.67° C | 57% | 1017.7 hPa | 0 mm | - | - | - |
| 1777991503 | 31.67° C | 57% | 1017.8 hPa | 0 mm | - | - | - |
| 1777991200 | 32.22° C | 56% | 1017.8 hPa | 0 mm | - | - | - |
| 1777990897 | 32.22° C | 56% | 1017.7 hPa | 0 mm | - | - | - |
| 1777990595 | 32.22° C | 58% | 1017.7 hPa | 0 mm | - | - | - |
| 1777989988 | 32.78° C | 58% | 1017.9 hPa | 0 mm | - | - | - |
| 1777989685 | 32.22° C | 59% | 1017.7 hPa | 0 mm | - | - | - |
| 1777989386 | 31.67° C | 60% | 1017.7 hPa | 0 mm | - | - | - |
| 1777989083 | 30° C | 65% | 1017.8 hPa | 0 mm | - | - | - |
| 1777988778 | 30° C | 66% | 1017.8 hPa | 0 mm | - | - | - |
| 1777988476 | 30.56° C | 64% | 1017.7 hPa | 0 mm | - | - | - |
| 1777988173 | 30.56° C | 64% | 1017.8 hPa | 0 mm | - | - | - |
| 1777987869 | 30° C | 64% | 1017.8 hPa | 0 mm | - | - | - |
| 1777987565 | 30.56° C | 64% | 1017.7 hPa | 0 mm | - | - | - |
| 1777987263 | 30.56° C | 64% | 1017.7 hPa | 0 mm | - | - | - |
| 1777986960 | 30.56° C | 64% | 1017.7 hPa | 0 mm | - | - | - |
| 1777986658 | 29.44° C | 68% | 1017.6 hPa | 0 mm | - | - | - |
| 1777986355 | 30° C | 67% | 1017.4 hPa | 0 mm | - | - | - |
| 1777986054 | 30° C | 66% | 1017.5 hPa | 0 mm | - | - | - |
| 1777985750 | 30° C | 67% | 1017.5 hPa | 0 mm | - | - | - |
| 1777985447 | 30° C | 68% | 1017.7 hPa | 0 mm | - | - | - |
* Rain latest hour (hover to see other rain measurements)
** Current wind speed in m/s (hover to see current wind gust speed)